createdAt,value
2023-03-29T00:01:42.237Z,92.50
2023-03-29T00:04:10.297Z,92.70
2023-03-29T00:06:37.786Z,92.90
2023-03-29T00:09:09.613Z,93.20
2023-03-29T00:11:36.415Z,92.80
2023-03-29T00:14:03.242Z,92.60
2023-03-29T00:16:30.217Z,92.70
2023-03-29T00:18:57.539Z,93.00
2023-03-29T00:21:24.641Z,93.20
2023-03-29T00:23:51.300Z,93.30
2023-03-29T00:26:18.036Z,93.40
2023-03-29T00:28:44.855Z,93.60
2023-03-29T00:31:14.842Z,93.60
2023-03-29T00:33:42.451Z,93.70
2023-03-29T00:36:10.711Z,94.00
2023-03-29T00:38:38.376Z,94.40
2023-03-29T00:41:06.876Z,94.20
2023-03-29T00:44:30.579Z,94.20
2023-03-29T00:46:57.365Z,94.40
2023-03-29T00:49:24.113Z,94.50
2023-03-29T00:51:51.104Z,94.50
2023-03-29T00:54:18.758Z,94.60
2023-03-29T00:56:49.990Z,94.80
2023-03-29T00:59:20.578Z,94.90
2023-03-29T01:02:02.125Z,95.10
2023-03-29T01:04:41.633Z,95.10
2023-03-29T01:07:18.638Z,95.20
2023-03-29T01:09:51.832Z,95.10
2023-03-29T01:12:23.681Z,95.20
2023-03-29T01:15:02.150Z,95.20
2023-03-29T01:17:31.493Z,95.20
2023-03-29T01:20:10.550Z,95.30
2023-03-29T01:22:40.046Z,95.30
2023-03-29T01:25:17.222Z,95.50
2023-03-29T01:27:53.219Z,95.50
2023-03-29T01:30:37.213Z,95.50
2023-03-29T01:33:11.479Z,95.60
2023-03-29T01:35:42.487Z,95.70
2023-03-29T01:38:15.448Z,95.70
2023-03-29T01:40:42.673Z,95.70
2023-03-29T01:43:21.841Z,95.70
2023-03-29T01:46:09.487Z,95.60
2023-03-29T01:48:56.885Z,95.80
2023-03-29T01:51:46.487Z,96.00
2023-03-29T01:54:19.127Z,95.80
2023-03-29T01:56:50.449Z,95.80
2023-03-29T01:59:24.283Z,95.90
2023-03-29T02:01:55.252Z,96.00
2023-03-29T02:04:27.818Z,96.10
2023-03-29T02:06:55.772Z,96.30
2023-03-29T02:09:23.470Z,96.70
2023-03-29T02:11:51.807Z,96.70
2023-03-29T02:14:19.328Z,96.60
2023-03-29T02:16:46.403Z,97.00
2023-03-29T02:19:15.296Z,96.80
2023-03-29T02:21:53.908Z,97.10
2023-03-29T02:24:24.019Z,97.00
2023-03-29T02:26:51.441Z,97.10
2023-03-29T02:29:18.262Z,97.10
2023-03-29T02:31:53.858Z,97.20
2023-03-29T02:34:30.123Z,97.20
2023-03-29T02:37:04.170Z,97.10
2023-03-29T02:39:33.788Z,97.10
2023-03-29T02:42:02.809Z,97.10
2023-03-29T02:44:32.703Z,97.10
2023-03-29T02:47:05.784Z,97.20
2023-03-29T02:49:32.864Z,97.20
2023-03-29T02:52:07.341Z,97.40
2023-03-29T02:54:37.997Z,97.40
2023-03-29T02:57:08.863Z,97.60
2023-03-29T02:59:36.380Z,97.70
2023-03-29T03:02:03.272Z,97.80
2023-03-29T03:04:30.423Z,97.80
2023-03-29T03:06:57.506Z,97.90
2023-03-29T03:09:24.431Z,98.10
2023-03-29T03:11:51.298Z,98.10
2023-03-29T03:14:19.031Z,98.20
2023-03-29T03:16:45.984Z,98.30
2023-03-29T03:19:13.306Z,98.40
2023-03-29T03:21:40.115Z,98.80
2023-03-29T03:24:07.635Z,98.40
2023-03-29T03:26:35.906Z,98.40
2023-03-29T03:29:02.816Z,98.30
2023-03-29T03:31:29.640Z,98.30
2023-03-29T03:33:56.733Z,98.30
2023-03-29T03:36:29.072Z,98.20
2023-03-29T03:38:57.657Z,98.10
2023-03-29T03:41:26.130Z,98.10
2023-03-29T03:43:53.070Z,98.00
2023-03-29T03:46:20.269Z,98.00
2023-03-29T03:48:47.254Z,98.00
2023-03-29T03:51:14.197Z,98.00
2023-03-29T03:53:41.669Z,97.80
2023-03-29T03:56:10.148Z,97.80
2023-03-29T03:58:37.828Z,97.70
2023-03-29T04:01:05.901Z,97.60
2023-03-29T04:03:32.698Z,97.60
2023-03-29T04:06:01.564Z,97.30
2023-03-29T04:08:28.280Z,97.20
2023-03-29T04:10:56.857Z,97.20
2023-03-29T04:13:24.290Z,97.10
2023-03-29T04:15:54.144Z,96.90
2023-03-29T04:18:21.542Z,96.90
2023-03-29T04:20:49.028Z,96.80
2023-03-29T04:23:16.014Z,96.60
2023-03-29T04:25:43.087Z,96.50
2023-03-29T04:28:11.108Z,96.50
2023-03-29T04:30:37.906Z,96.40
2023-03-29T04:33:04.661Z,96.30
2023-03-29T04:35:31.564Z,96.30
2023-03-29T04:37:58.569Z,96.20
2023-03-29T04:40:25.315Z,96.10
2023-03-29T04:42:52.557Z,96.00
2023-03-29T04:45:19.277Z,95.80
2023-03-29T04:47:46.504Z,95.70
2023-03-29T04:50:13.900Z,95.70
2023-03-29T04:52:41.379Z,95.70
2023-03-29T04:55:09.254Z,96.10
2023-03-29T04:57:36.041Z,95.70
2023-03-29T05:00:13.739Z,95.50
2023-03-29T05:02:41.182Z,95.80
2023-03-29T05:05:08.535Z,96.00
2023-03-29T05:07:35.716Z,96.20
2023-03-29T05:10:02.569Z,96.30
2023-03-29T05:12:29.324Z,96.60
2023-03-29T05:14:56.909Z,96.70
2023-03-29T05:17:24.074Z,96.30
2023-03-29T05:19:51.088Z,95.90
2023-03-29T05:22:18.004Z,96.10
2023-03-29T05:24:44.760Z,96.00
2023-03-29T05:27:11.782Z,95.80
2023-03-29T05:29:38.438Z,95.50
2023-03-29T05:32:05.485Z,95.30
2023-03-29T05:34:32.268Z,95.20
2023-03-29T05:36:59.199Z,95.60
2023-03-29T05:39:25.989Z,95.80
2023-03-29T05:41:53.079Z,95.60
2023-03-29T05:44:19.835Z,95.50
2023-03-29T05:46:46.980Z,95.50
2023-03-29T05:49:13.935Z,95.50
2023-03-29T05:51:42.028Z,95.60
2023-03-29T05:54:08.769Z,95.10
2023-03-29T05:56:35.571Z,94.90
2023-03-29T05:59:02.289Z,95.00
2023-03-29T06:01:29.217Z,94.90
2023-03-29T06:03:57.360Z,95.00
2023-03-29T06:06:24.126Z,94.90
2023-03-29T06:08:50.921Z,94.90
2023-03-29T06:11:17.779Z,95.00
2023-03-29T06:13:44.498Z,95.00
2023-03-29T06:16:13.037Z,95.30
2023-03-29T06:18:41.022Z,95.30
2023-03-29T06:21:09.199Z,94.80
2023-03-29T06:23:36.946Z,94.90
2023-03-29T06:26:05.742Z,94.80
2023-03-29T06:28:32.957Z,94.70
2023-03-29T06:31:02.694Z,94.40
2023-03-29T06:33:30.833Z,93.90
2023-03-29T06:35:57.971Z,93.90
2023-03-29T06:38:26.731Z,93.90
2023-03-29T06:41:01.196Z,93.90
2023-03-29T06:43:28.320Z,93.80
2023-03-29T06:45:55.178Z,94.00
2023-03-29T06:48:22.176Z,94.20
2023-03-29T06:50:49.344Z,94.70
2023-03-29T06:53:17.015Z,95.70
2023-03-29T06:55:43.787Z,96.00
2023-03-29T06:58:11.084Z,95.90
2023-03-29T07:00:39.136Z,95.50
2023-03-29T07:03:09.827Z,95.00
2023-03-29T07:05:40.717Z,94.80
2023-03-29T07:08:08.225Z,94.60
2023-03-29T07:10:47.563Z,94.20
2023-03-29T07:13:15.599Z,94.10
2023-03-29T07:15:43.730Z,93.50
2023-03-29T07:18:12.511Z,93.30
2023-03-29T07:20:40.560Z,93.20
2023-03-29T07:23:09.121Z,93.50
2023-03-29T07:25:37.888Z,93.60
2023-03-29T07:28:06.134Z,93.80
2023-03-29T07:30:33.324Z,93.70
2023-03-29T07:33:00.541Z,93.70
2023-03-29T07:35:27.937Z,93.80
2023-03-29T07:37:55.719Z,93.90
2023-03-29T07:40:26.321Z,94.10
2023-03-29T07:42:55.210Z,94.10
2023-03-29T07:45:26.768Z,94.20
2023-03-29T07:47:57.103Z,94.30
2023-03-29T07:50:25.124Z,94.20
2023-03-29T07:52:51.925Z,94.10
2023-03-29T07:55:18.960Z,94.10
2023-03-29T07:57:46.202Z,94.10
2023-03-29T08:00:17.350Z,94.20
2023-03-29T08:02:45.883Z,94.00
2023-03-29T08:05:15.456Z,93.90
2023-03-29T08:07:46.953Z,93.90
2023-03-29T08:10:19.352Z,93.90
2023-03-29T08:12:47.509Z,94.00
2023-03-29T08:15:15.111Z,94.10
2023-03-29T08:17:41.993Z,94.10
2023-03-29T08:20:11.339Z,94.30
2023-03-29T08:22:38.966Z,94.50
2023-03-29T08:25:07.301Z,94.40
2023-03-29T08:27:34.985Z,94.40
2023-03-29T08:30:01.809Z,94.20
2023-03-29T08:32:28.819Z,94.10
2023-03-29T08:34:55.738Z,93.60
2023-03-29T08:37:24.642Z,93.30
2023-03-29T08:39:51.523Z,92.90
2023-03-29T08:42:46.489Z,92.70
2023-03-29T08:45:27.724Z,92.80
2023-03-29T08:47:59.822Z,92.60
2023-03-29T08:50:35.240Z,92.50
2023-03-29T08:53:07.056Z,92.60
2023-03-29T08:55:42.070Z,92.40
2023-03-29T08:58:15.817Z,92.30
2023-03-29T09:00:55.207Z,92.30
2023-03-29T09:03:26.042Z,92.30
2023-03-29T09:06:10.915Z,92.30
2023-03-29T09:08:49.355Z,92.30
2023-03-29T09:11:19.386Z,92.40
2023-03-29T09:13:55.108Z,92.10
2023-03-29T09:17:02.840Z,92.10
2023-03-29T09:19:54.511Z,92.20
2023-03-29T09:22:36.069Z,91.10
2023-03-29T09:25:12.980Z,91.40
2023-03-29T09:27:50.350Z,91.60
2023-03-29T09:30:25.971Z,91.50
2023-03-29T09:32:57.540Z,91.60
2023-03-29T09:35:41.126Z,91.30
2023-03-29T09:38:13.321Z,91.30
2023-03-29T09:40:46.544Z,91.00
2023-03-29T09:43:18.388Z,91.00
2023-03-29T09:45:51.281Z,91.00
2023-03-29T09:48:19.705Z,91.20
2023-03-29T09:50:51.332Z,91.10
2023-03-29T09:53:20.650Z,90.90
2023-03-29T09:55:50.477Z,90.80
2023-03-29T09:58:21.728Z,90.70
2023-03-29T10:00:49.392Z,90.80
2023-03-29T10:03:21.143Z,90.70
2023-03-29T10:05:51.595Z,90.60
2023-03-29T10:08:22.627Z,90.60
2023-03-29T10:10:49.758Z,90.70
2023-03-29T10:13:26.898Z,90.50
2023-03-29T10:16:09.263Z,90.70
2023-03-29T10:18:43.121Z,90.60
2023-03-29T10:21:16.714Z,90.70
2023-03-29T10:23:44.284Z,90.40
2023-03-29T10:26:22.913Z,90.10
2023-03-29T10:28:53.878Z,89.20
2023-03-29T10:31:22.458Z,89.30
2023-03-29T10:33:57.119Z,88.20
2023-03-29T10:36:27.093Z,88.20
2023-03-29T10:38:57.173Z,88.80
2023-03-29T10:41:25.310Z,89.10
2023-03-29T10:43:52.125Z,88.10
2023-03-29T10:46:33.809Z,88.30
2023-03-29T10:49:05.875Z,87.60
2023-03-29T10:51:34.468Z,87.40
2023-03-29T10:54:02.463Z,86.90
2023-03-29T10:56:58.822Z,86.90
2023-03-29T10:59:39.406Z,87.40
2023-03-29T11:02:15.381Z,86.90
2023-03-29T11:05:05.938Z,86.20
2023-03-29T11:07:37.191Z,85.30
2023-03-29T11:10:19.128Z,85.70
2023-03-29T11:13:10.701Z,85.20
2023-03-29T11:15:58.701Z,83.70
2023-03-29T11:19:02.390Z,83.10
2023-03-29T11:21:38.003Z,83.80
2023-03-29T11:24:27.371Z,84.20
2023-03-29T11:27:01.049Z,82.70
2023-03-29T11:29:49.060Z,83.60
2023-03-29T11:32:23.967Z,82.50
2023-03-29T11:38:29.228Z,83.10
2023-03-29T11:41:08.462Z,82.20
2023-03-29T11:43:44.266Z,78.60
2023-03-29T11:46:32.842Z,78.60
2023-03-29T11:49:05.624Z,78.70
2023-03-29T11:51:37.895Z,77.30
2023-03-29T11:54:20.058Z,78.70
2023-03-29T11:56:54.611Z,78.90
2023-03-29T11:59:34.578Z,78.60
2023-03-29T12:02:30.844Z,78.10
2023-03-29T12:05:01.280Z,78.70
2023-03-29T12:07:40.002Z,79.50
2023-03-29T12:10:27.324Z,78.80
2023-03-29T12:13:15.046Z,79.20
2023-03-29T12:15:48.588Z,78.40
2023-03-29T12:18:40.910Z,79.00
2023-03-29T12:21:20.139Z,78.60
2023-03-29T12:23:48.126Z,79.50
2023-03-29T12:26:36.434Z,78.20
2023-03-29T12:29:05.677Z,78.20
2023-03-29T12:31:57.319Z,79.40
2023-03-29T12:34:44.118Z,79.70
2023-03-29T12:37:17.175Z,79.80
2023-03-29T12:39:44.296Z,79.00
2023-03-29T12:42:18.079Z,79.20
2023-03-29T12:45:05.934Z,79.50
2023-03-29T12:47:37.297Z,77.60
2023-03-29T12:50:04.728Z,77.30
2023-03-29T12:52:36.610Z,75.20
2023-03-29T12:55:20.788Z,74.70
2023-03-29T12:58:25.948Z,74.60
2023-03-29T13:01:29.992Z,74.50
2023-03-29T13:04:21.628Z,75.20
2023-03-29T13:07:02.834Z,75.90
2023-03-29T13:09:52.890Z,77.40
2023-03-29T13:12:22.838Z,78.00
2023-03-29T13:14:55.879Z,77.70
2023-03-29T13:17:47.827Z,77.90
2023-03-29T13:20:46.539Z,78.50
2023-03-29T13:23:47.222Z,78.70
2023-03-29T13:26:35.699Z,79.20
2023-03-29T13:29:31.064Z,79.90
2023-03-29T13:32:25.927Z,79.40
2023-03-29T13:35:11.610Z,79.60
2023-03-29T13:40:56.781Z,80.20
2023-03-29T13:43:33.620Z,80.10
2023-03-29T13:46:00.484Z,79.40
2023-03-29T13:48:30.962Z,79.70
2023-03-29T13:51:05.038Z,80.00
2023-03-29T13:53:37.384Z,80.60
2023-03-29T13:56:08.190Z,80.50
2023-03-29T13:58:53.689Z,79.50
2023-03-29T14:01:54.574Z,81.90
2023-03-29T14:04:28.490Z,83.70
2023-03-29T14:06:56.961Z,84.60
2023-03-29T14:09:30.090Z,88.40
2023-03-29T14:11:59.364Z,91.00
2023-03-29T14:14:28.580Z,92.20
2023-03-29T14:16:56.699Z,92.60
2023-03-29T14:19:32.103Z,93.30
2023-03-29T14:22:01.841Z,94.20
2023-03-29T14:24:38.501Z,94.90
2023-03-29T14:27:07.058Z,94.70
2023-03-29T14:29:35.734Z,94.80
2023-03-29T14:32:16.826Z,95.00
2023-03-29T14:34:48.243Z,95.30
2023-03-29T14:37:21.771Z,95.40
2023-03-29T14:39:50.199Z,95.50
2023-03-29T14:42:26.780Z,95.50
2023-03-29T14:45:01.983Z,95.60
2023-03-29T14:47:31.784Z,95.40
2023-03-29T14:50:01.779Z,95.20
2023-03-29T14:52:30.385Z,95.20
2023-03-29T14:55:00.128Z,95.30
2023-03-29T14:57:32.672Z,95.40
2023-03-29T15:00:02.330Z,95.40
2023-03-29T15:02:31.500Z,95.40
2023-03-29T15:05:07.472Z,95.20
2023-03-29T15:07:36.495Z,95.00
2023-03-29T15:10:08.303Z,94.80
2023-03-29T15:12:37.936Z,94.80
2023-03-29T15:15:07.850Z,94.50
2023-03-29T15:17:51.121Z,94.30
2023-03-29T15:20:27.975Z,93.90
2023-03-29T15:23:15.729Z,93.90
2023-03-29T15:25:55.254Z,94.00
2023-03-29T15:28:34.056Z,94.00
2023-03-29T15:31:11.198Z,93.90
2023-03-29T15:33:40.436Z,93.90
2023-03-29T15:36:10.019Z,93.90
2023-03-29T15:38:44.130Z,93.90
2023-03-29T15:41:13.323Z,93.90
2023-03-29T15:43:41.278Z,94.00
2023-03-29T15:46:08.603Z,93.40
2023-03-29T15:48:35.570Z,93.60
2023-03-29T15:51:06.218Z,93.30
2023-03-29T15:53:33.450Z,93.00
2023-03-29T15:56:01.984Z,93.70
2023-03-29T15:58:32.359Z,93.40
2023-03-29T16:01:37.266Z,93.30
2023-03-29T16:04:06.809Z,93.20
2023-03-29T16:06:34.827Z,93.20
2023-03-29T16:09:01.903Z,93.30
2023-03-29T16:11:28.711Z,93.40
2023-03-29T16:13:56.405Z,93.60
2023-03-29T16:16:23.865Z,93.70
2023-03-29T16:18:50.784Z,93.80
2023-03-29T16:21:19.136Z,94.00
2023-03-29T16:23:47.073Z,94.00
2023-03-29T16:26:16.603Z,94.20
2023-03-29T16:28:43.823Z,94.20
2023-03-29T16:31:13.022Z,94.60
2023-03-29T16:33:41.427Z,94.50
2023-03-29T16:36:09.029Z,94.40
2023-03-29T16:38:36.104Z,94.30
2023-03-29T16:41:02.926Z,94.30
2023-03-29T16:43:29.698Z,94.30
2023-03-29T16:45:57.104Z,94.30
2023-03-29T16:48:24.130Z,94.30
2023-03-29T16:50:51.285Z,94.40
2023-03-29T16:53:21.325Z,94.40
2023-03-29T16:55:48.677Z,94.40
2023-03-29T16:58:15.596Z,94.40
2023-03-29T17:00:44.401Z,94.50
2023-03-29T17:03:12.755Z,94.60
2023-03-29T17:05:42.744Z,94.50
2023-03-29T17:08:10.229Z,94.40
2023-03-29T17:10:40.662Z,94.40
2023-03-29T17:13:08.106Z,94.30
2023-03-29T17:15:38.116Z,94.30
2023-03-29T17:18:06.534Z,94.30
2023-03-29T17:20:33.393Z,94.40
2023-03-29T17:23:00.170Z,94.60
2023-03-29T17:25:26.908Z,94.80
2023-03-29T17:27:54.168Z,95.20
2023-03-29T17:30:21.144Z,95.50
2023-03-29T17:32:47.999Z,95.60
2023-03-29T17:35:14.860Z,95.60
2023-03-29T17:37:42.592Z,95.60
2023-03-29T17:40:13.964Z,95.40
2023-03-29T17:42:41.679Z,95.40
2023-03-29T17:45:09.905Z,95.60
2023-03-29T17:47:37.477Z,95.70
2023-03-29T17:50:06.232Z,95.80
2023-03-29T17:52:33.263Z,95.70
2023-03-29T17:55:00.306Z,95.70
2023-03-29T17:57:27.240Z,95.70
2023-03-29T17:59:54.121Z,95.70
2023-03-29T18:02:23.513Z,96.30
2023-03-29T18:04:51.798Z,96.30
2023-03-29T18:07:18.680Z,96.40
2023-03-29T18:09:45.515Z,96.50
2023-03-29T18:12:12.549Z,96.50
2023-03-29T18:14:39.373Z,96.60
2023-03-29T18:17:06.763Z,96.70
2023-03-29T18:19:33.703Z,96.90
2023-03-29T18:22:00.832Z,96.80
2023-03-29T18:24:27.781Z,97.00
2023-03-29T18:26:54.631Z,96.90
2023-03-29T18:29:21.426Z,96.80
2023-03-29T18:31:48.450Z,96.70
2023-03-29T18:34:15.699Z,96.70
2023-03-29T18:36:42.563Z,96.70
2023-03-29T18:39:09.668Z,96.70
2023-03-29T18:41:37.389Z,96.50
2023-03-29T18:44:05.635Z,96.50
2023-03-29T18:46:33.284Z,96.30
2023-03-29T18:49:01.323Z,96.30
2023-03-29T18:51:28.376Z,96.20
2023-03-29T18:53:56.528Z,96.10
2023-03-29T18:56:23.542Z,96.00
2023-03-29T18:58:50.473Z,96.00
2023-03-29T19:01:17.761Z,96.00
2023-03-29T19:03:45.838Z,95.90
2023-03-29T19:06:12.984Z,95.90
2023-03-29T19:08:41.486Z,95.90
2023-03-29T19:11:11.287Z,95.90
2023-03-29T19:13:38.351Z,95.90
2023-03-29T19:16:06.066Z,95.90
2023-03-29T19:18:33.828Z,95.90
2023-03-29T19:21:01.204Z,95.90
2023-03-29T19:23:28.799Z,96.00
2023-03-29T19:25:57.680Z,96.00
2023-03-29T19:28:25.995Z,96.00
2023-03-29T19:30:53.386Z,95.90
2023-03-29T19:33:20.924Z,96.20
2023-03-29T19:35:50.970Z,95.80
2023-03-29T19:38:19.158Z,95.30
2023-03-29T19:40:47.110Z,95.80
2023-03-29T19:43:17.271Z,95.50
2023-03-29T19:45:48.879Z,95.60
2023-03-29T19:50:47.974Z,95.70
2023-03-29T19:53:14.965Z,95.70
2023-03-29T19:55:43.242Z,95.70
2023-03-29T19:58:10.133Z,95.70
2023-03-29T20:00:38.964Z,95.80
2023-03-29T20:03:09.735Z,95.80
2023-03-29T20:05:38.442Z,95.80
2023-03-29T20:08:06.701Z,95.90
2023-03-29T20:10:34.111Z,95.90
2023-03-29T20:13:00.947Z,96.00
2023-03-29T20:15:27.900Z,96.00
2023-03-29T20:17:59.477Z,96.30
2023-03-29T20:20:27.165Z,96.40
2023-03-29T20:25:25.927Z,96.30
2023-03-29T20:27:53.215Z,96.40
2023-03-29T20:30:20.614Z,97.90
2023-03-29T20:32:47.604Z,96.30
2023-03-29T20:35:14.554Z,96.30
2023-03-29T20:37:41.478Z,96.30
2023-03-29T20:40:10.524Z,96.20
2023-03-29T20:42:38.740Z,96.10
2023-03-29T20:45:07.998Z,96.10
2023-03-29T20:47:44.625Z,95.90
2023-03-29T20:50:11.562Z,95.80
2023-03-29T20:52:38.342Z,95.70
2023-03-29T20:55:05.743Z,95.50
2023-03-29T20:57:32.642Z,95.30
2023-03-29T21:02:27.338Z,94.90
2023-03-29T21:04:54.343Z,94.60
2023-03-29T21:07:21.621Z,94.50
2023-03-29T21:09:49.918Z,95.10
2023-03-29T21:12:17.373Z,94.20
2023-03-29T21:14:44.788Z,94.50
2023-03-29T21:19:39.519Z,95.20
2023-03-29T21:22:06.735Z,95.40
2023-03-29T21:24:34.021Z,95.30
2023-03-29T21:27:00.929Z,95.50
2023-03-29T21:29:27.866Z,95.60
2023-03-29T21:31:55.014Z,95.40
2023-03-29T21:34:21.895Z,95.40
2023-03-29T21:36:49.232Z,95.30
2023-03-29T21:39:16.246Z,95.20
2023-03-29T21:41:43.320Z,95.10
2023-03-29T21:44:10.413Z,94.90
2023-03-29T21:46:37.209Z,95.00
2023-03-29T21:49:04.264Z,95.30
2023-03-29T21:51:30.972Z,95.50
2023-03-29T21:53:57.716Z,95.50
2023-03-29T21:56:24.510Z,95.40
2023-03-29T21:58:51.225Z,95.30
2023-03-29T22:01:17.993Z,95.20
2023-03-29T22:03:44.887Z,95.10
2023-03-29T22:06:14.158Z,95.20
2023-03-29T22:08:41.163Z,95.20
2023-03-29T22:11:11.451Z,95.10
2023-03-29T22:16:06.855Z,95.30
2023-03-29T22:18:43.654Z,95.30
2023-03-29T22:21:16.358Z,95.10
2023-03-29T22:23:44.941Z,94.80
2023-03-29T22:26:13.692Z,94.70
2023-03-29T22:28:41.717Z,94.60
2023-03-29T22:31:11.538Z,94.60
2023-03-29T22:33:38.782Z,94.30
2023-03-29T22:36:15.712Z,93.70
2023-03-29T22:38:42.936Z,93.30
2023-03-29T22:41:09.885Z,93.40
2023-03-29T22:43:37.132Z,93.40
2023-03-29T22:46:05.859Z,93.10
2023-03-29T22:48:32.743Z,93.50
2023-03-29T22:50:59.606Z,92.70
2023-03-29T22:53:27.181Z,92.40
2023-03-29T22:55:54.691Z,92.60
2023-03-29T22:58:21.945Z,92.50
2023-03-29T23:00:49.453Z,92.60
2023-03-29T23:03:16.684Z,92.50
2023-03-29T23:05:50.779Z,92.30
2023-03-29T23:08:18.091Z,92.30
2023-03-29T23:10:46.190Z,92.30
2023-03-29T23:13:15.657Z,92.30
2023-03-29T23:15:47.297Z,92.30
2023-03-29T23:18:15.799Z,92.20
2023-03-29T23:20:44.380Z,92.20
2023-03-29T23:25:38.303Z,92.10
2023-03-29T23:28:05.131Z,92.30
2023-03-29T23:30:33.791Z,92.20
2023-03-29T23:33:00.609Z,92.10
2023-03-29T23:35:27.413Z,92.10
2023-03-29T23:37:54.289Z,92.10
2023-03-29T23:40:21.312Z,92.10
2023-03-29T23:42:48.957Z,92.40
2023-03-29T23:45:18.674Z,92.10
2023-03-29T23:47:46.188Z,93.30
2023-03-29T23:50:14.434Z,92.40
2023-03-29T23:52:42.104Z,92.40
2023-03-29T23:55:14.341Z,92.30
2023-03-29T23:57:42.009Z,92.40
